KALI/ALI METAR and TAF weather

Enter ICAO airport designator
Station Type Date Time Source
KALI METAR 2019/10/21 02:53 UTC NOAA

KALI 210253Z AUTO 17011KT 10SM BKN017 BKN030 28/24 A2973 RMK AO2 SLP065 T02830244 53014


Station Type Date Time Source
KALI Decoded METAR 2019/10/21 02:53 UTC NOAA

ALICE INTERNATIONAL AIRPORT, TX, United States (KALI) 27-44N 098-01W 53M
Oct 20, 2019 - 10:53 PM EDT / 2019.10.21 0253 UTC
Wind: from the S (170 degrees) at 13 MPH (11 KT):0
Visibility: 10 mile(s):0
Sky conditions: mostly cloudy
Temperature: 82.9 F (28.3 C)
Dew Point: 75.9 F (24.4 C)
Relative Humidity: 79%
Pressure (altimeter): 29.73 in. Hg (1006 hPa)
Pressure tendency: 0.04 inches (1.4 hPa) higher than three hours ago
ob: KALI 210253Z AUTO 17011KT 10SM BKN017 BKN030 28/24 A2973 RMK AO2 SLP065 T02830244 53014
cycle: 3

Station Type Date Time Source
KALI TAF 2019/10/20 18:22 UTC NOAA

TAF KALI 201720Z 2018/2118 16015G21KT P6SM SCT035 BKN050
FM210200 17008KT P6SM BKN020
FM210900 19005KT 6SM BR OVC007
FM211500 27006KT P6SM BKN015

Example: see airport list